createdAt,value
2018-09-22T00:22:51.313Z,3
2018-09-22T00:23:20.697Z,4
2018-09-22T00:23:51.805Z,3
2018-09-22T00:24:25.004Z,0
2018-09-22T00:24:56.472Z,0
2018-09-22T00:25:26.369Z,0
2018-09-22T00:25:55.741Z,0
2018-09-22T00:26:25.306Z,0
2018-09-22T00:26:55.545Z,0
2018-09-22T00:27:26.286Z,0
2018-09-22T00:27:55.970Z,0
2018-09-22T00:28:25.962Z,0
2018-09-22T00:28:56.247Z,0
2018-09-22T00:29:26.216Z,0
2018-09-22T00:29:55.956Z,0
2018-09-22T00:30:25.638Z,0
2018-09-22T00:30:55.256Z,0
2018-09-22T00:31:24.882Z,0
2018-09-22T00:31:54.383Z,0
2018-09-22T00:32:23.759Z,0
2018-09-22T00:32:53.146Z,0
2018-09-22T00:33:22.575Z,0
2018-09-22T00:33:51.982Z,0
2018-09-22T00:35:23.614Z,0
2018-09-22T00:35:53.956Z,0
2018-09-22T00:36:24.850Z,0
2018-09-22T00:36:55.655Z,0
2018-09-22T00:37:25.245Z,0
2018-09-22T00:38:10.280Z,0
2018-09-22T00:38:49.978Z,0
2018-09-22T00:39:30.828Z,0
2018-09-22T00:40:20.649Z,0
2018-09-22T00:40:59.559Z,0
2018-09-22T00:41:41.500Z,0
2018-09-22T00:42:12.393Z,0
2018-09-22T00:42:41.958Z,0
2018-09-22T00:43:11.720Z,0
2018-09-22T00:43:41.385Z,0
2018-09-22T00:44:11.209Z,0
2018-09-22T00:44:40.645Z,0
2018-09-22T00:45:09.972Z,0
2018-09-22T00:45:39.574Z,0
2018-09-22T00:46:09.008Z,0
2018-09-22T00:46:38.315Z,0
2018-09-22T00:47:07.948Z,0
2018-09-22T00:47:37.582Z,0
2018-09-22T00:48:07.156Z,0
2018-09-22T00:48:36.585Z,0
2018-09-22T00:49:06.139Z,0
2018-09-22T00:49:35.636Z,0
2018-09-22T00:50:05.259Z,0
2018-09-22T00:50:35.240Z,0
2018-09-22T00:51:04.901Z,0
2018-09-22T00:51:34.833Z,0
2018-09-22T00:52:04.441Z,0
2018-09-22T00:52:33.823Z,0
2018-09-22T00:53:04.552Z,0
2018-09-22T00:53:33.895Z,0
2018-09-22T00:54:03.925Z,0
2018-09-22T00:54:33.248Z,0
2018-09-22T00:55:02.521Z,0
2018-09-22T00:55:31.897Z,0
2018-09-22T00:56:01.248Z,0
2018-09-22T00:56:30.528Z,0
2018-09-22T00:56:59.837Z,0
2018-09-22T00:57:30.563Z,0
2018-09-22T00:58:03.250Z,0
2018-09-22T00:58:34.381Z,0
2018-09-22T00:59:03.881Z,0
2018-09-22T00:59:33.496Z,0
2018-09-22T01:00:03.020Z,0
2018-09-22T01:00:32.595Z,0
2018-09-22T01:01:02.276Z,0
2018-09-22T01:01:31.754Z,0
2018-09-22T01:02:01.103Z,0
2018-09-22T01:02:30.671Z,0
2018-09-22T01:03:00.127Z,0
2018-09-22T01:03:29.480Z,0
2018-09-22T01:03:58.953Z,0
2018-09-22T01:04:28.583Z,0
2018-09-22T01:04:58.400Z,0
2018-09-22T01:05:27.751Z,0
2018-09-22T01:05:57.036Z,0
2018-09-22T01:06:26.543Z,0
2018-09-22T01:06:56.016Z,0
2018-09-22T01:07:25.269Z,0
2018-09-22T01:07:54.725Z,0
2018-09-22T01:08:24.451Z,0
2018-09-22T01:08:53.959Z,0
2018-09-22T01:09:23.620Z,0
2018-09-22T01:09:53.029Z,0
2018-09-22T01:10:22.335Z,0
2018-09-22T01:10:51.804Z,0
2018-09-22T01:11:21.404Z,0
2018-09-22T01:11:51.070Z,0
2018-09-22T01:12:20.564Z,0
2018-09-22T01:12:50.009Z,0
2018-09-22T01:13:19.508Z,0
2018-09-22T01:13:48.926Z,0
2018-09-22T01:14:18.813Z,0
2018-09-22T01:14:48.514Z,0
2018-09-22T01:15:17.938Z,0
2018-09-22T01:15:47.284Z,0
2018-09-22T01:16:16.499Z,0
2018-09-22T01:16:45.810Z,0
2018-09-22T01:17:15.106Z,0
2018-09-22T01:17:44.418Z,0
2018-09-22T01:18:13.763Z,0
2018-09-22T01:18:43.014Z,0
2018-09-22T01:19:13.292Z,0
2018-09-22T01:19:45.755Z,0
2018-09-22T01:20:16.614Z,0
2018-09-22T01:20:46.056Z,0
2018-09-22T01:21:15.338Z,0
2018-09-22T01:21:44.779Z,0
2018-09-22T01:22:14.680Z,0
2018-09-22T01:22:44.501Z,0
2018-09-22T01:23:13.800Z,0
2018-09-22T01:23:43.627Z,0
2018-09-22T01:24:13.677Z,0
2018-09-22T01:24:43.184Z,0
2018-09-22T01:25:12.537Z,0
2018-09-22T01:25:41.803Z,0
2018-09-22T01:26:11.635Z,0
2018-09-22T01:26:41.616Z,0
2018-09-22T01:27:11.353Z,0
2018-09-22T01:27:40.970Z,0
2018-09-22T01:28:11.362Z,0
2018-09-22T01:28:41.289Z,0
2018-09-22T01:29:10.820Z,0
2018-09-22T01:29:40.287Z,0
2018-09-22T01:30:09.810Z,0
2018-09-22T01:30:39.589Z,0
2018-09-22T01:31:09.303Z,0
2018-09-22T01:31:39.035Z,0
2018-09-22T01:32:08.411Z,0
2018-09-22T01:32:37.860Z,0
2018-09-22T01:33:07.354Z,0
2018-09-22T01:33:37.055Z,0
2018-09-22T01:34:06.348Z,0
2018-09-22T01:34:35.936Z,0
2018-09-22T01:35:05.397Z,0
2018-09-22T01:35:34.975Z,0
2018-09-22T01:36:04.348Z,0
2018-09-22T01:36:33.890Z,0
2018-09-22T01:37:03.383Z,0
2018-09-22T01:37:32.955Z,0
2018-09-22T01:38:02.206Z,0
2018-09-22T01:38:31.525Z,0
2018-09-22T01:39:00.843Z,0
2018-09-22T01:39:30.156Z,0
2018-09-22T01:39:59.475Z,0
2018-09-22T01:40:28.752Z,0
2018-09-22T01:40:58.053Z,0
2018-09-22T01:41:27.316Z,0
2018-09-22T01:41:57.407Z,0
2018-09-22T01:42:29.094Z,0
2018-09-22T01:42:59.198Z,0
2018-09-22T01:43:28.544Z,0
2018-09-22T01:43:57.958Z,0
2018-09-22T01:44:27.386Z,0
2018-09-22T01:44:57.963Z,0
2018-09-22T01:45:27.322Z,0
2018-09-22T01:45:56.720Z,0
2018-09-22T01:46:26.216Z,0
2018-09-22T01:46:55.627Z,0
2018-09-22T01:47:24.956Z,0
2018-09-22T01:47:54.409Z,0
2018-09-22T01:48:23.765Z,0
2018-09-22T01:48:54.131Z,0
2018-09-22T01:49:23.516Z,0
2018-09-22T01:49:54.006Z,0
2018-09-22T01:50:23.472Z,0
2018-09-22T01:50:52.849Z,0
2018-09-22T01:51:23.402Z,0
2018-09-22T01:51:53.096Z,0
2018-09-22T01:52:23.000Z,0
2018-09-22T01:52:52.766Z,0
2018-09-22T01:53:22.544Z,0
2018-09-22T01:53:51.935Z,0
2018-09-22T01:54:21.833Z,0
2018-09-22T01:54:51.642Z,0
2018-09-22T01:55:21.243Z,0
2018-09-22T01:55:50.662Z,0
2018-09-22T01:56:20.063Z,0
2018-09-22T01:56:49.718Z,0
2018-09-22T01:57:19.557Z,0
2018-09-22T01:57:48.974Z,0
2018-09-22T01:58:18.446Z,0
2018-09-22T01:58:48.162Z,0
2018-09-22T01:59:17.925Z,0
2018-09-22T01:59:47.954Z,0
2018-09-22T02:00:17.716Z,0
2018-09-22T02:00:46.994Z,0
2018-09-22T02:01:16.286Z,0
2018-09-22T02:01:45.573Z,0
2018-09-22T02:02:14.869Z,0
2018-09-22T02:02:44.169Z,0
2018-09-22T02:03:13.486Z,0
2018-09-22T02:03:42.777Z,0
2018-09-22T02:04:12.840Z,0
2018-09-22T02:04:44.338Z,0
2018-09-22T02:05:15.732Z,0
2018-09-22T02:05:45.270Z,0
2018-09-22T02:06:14.568Z,0
2018-09-22T02:06:43.863Z,0
2018-09-22T02:07:13.235Z,0
2018-09-22T02:07:42.528Z,0
2018-09-22T02:08:11.800Z,0
2018-09-22T02:08:41.069Z,0
2018-09-22T02:09:10.452Z,0
2018-09-22T02:09:39.733Z,0
2018-09-22T02:10:09.041Z,0
2018-09-22T02:10:38.486Z,0
2018-09-22T02:11:07.755Z,0
2018-09-22T02:11:37.048Z,0
2018-09-22T02:12:06.372Z,0
2018-09-22T02:12:35.660Z,0
2018-09-22T02:13:04.937Z,0
2018-09-22T02:13:34.241Z,0
2018-09-22T02:14:03.536Z,0
2018-09-22T02:14:32.872Z,0
2018-09-22T02:15:02.172Z,0
2018-09-22T02:15:31.466Z,0
2018-09-22T02:16:00.857Z,0
2018-09-22T02:16:30.185Z,0
2018-09-22T02:16:59.538Z,0
2018-09-22T02:17:28.789Z,0
2018-09-22T02:17:58.088Z,0
2018-09-22T02:18:27.365Z,0
2018-09-22T02:18:56.719Z,0
2018-09-22T02:19:26.000Z,0
2018-09-22T02:19:55.923Z,0
2018-09-22T02:20:25.298Z,0
2018-09-22T02:20:55.617Z,0
2018-09-22T02:21:24.913Z,0
2018-09-22T02:21:54.210Z,0
2018-09-22T02:22:23.501Z,0
2018-09-22T02:22:52.833Z,0
2018-09-22T02:23:22.095Z,0
2018-09-22T02:23:51.365Z,0
2018-09-22T02:24:20.668Z,0
2018-09-22T02:24:49.944Z,0
2018-09-22T02:25:19.233Z,0
2018-09-22T02:25:48.518Z,0
2018-09-22T02:26:17.888Z,0
2018-09-22T02:26:48.177Z,0
2018-09-22T02:27:17.478Z,0
2018-09-22T02:27:46.849Z,0
2018-09-22T02:28:16.117Z,0
2018-09-22T02:28:45.443Z,0
2018-09-22T02:29:14.742Z,0
2018-09-22T02:29:44.064Z,0
2018-09-22T02:30:13.388Z,0
2018-09-22T02:30:42.685Z,0
2018-09-22T02:31:12.037Z,0
2018-09-22T02:31:41.322Z,0
2018-09-22T02:32:10.598Z,0
2018-09-22T02:32:39.877Z,0
2018-09-22T02:33:09.212Z,0
2018-09-22T02:33:38.514Z,0
2018-09-22T02:34:07.814Z,0
2018-09-22T02:34:37.073Z,0
2018-09-22T02:35:06.365Z,0
2018-09-22T02:35:35.657Z,0
2018-09-22T02:36:04.972Z,0
2018-09-22T02:36:34.350Z,0
2018-09-22T02:37:03.635Z,0
2018-09-22T02:37:32.942Z,0
2018-09-22T02:38:02.224Z,0
2018-09-22T02:38:31.548Z,0
2018-09-22T02:39:00.819Z,0
2018-09-22T02:39:30.165Z,0
2018-09-22T02:39:59.468Z,0
2018-09-22T02:40:28.781Z,0
2018-09-22T02:40:58.061Z,0
2018-09-22T02:41:27.385Z,0
2018-09-22T02:41:56.713Z,0
2018-09-22T02:42:26.008Z,0
2018-09-22T02:42:55.279Z,0
2018-09-22T02:43:24.564Z,0
2018-09-22T02:43:53.902Z,0
2018-09-22T02:44:23.213Z,0
2018-09-22T02:44:52.490Z,0
2018-09-22T02:45:21.778Z,0
2018-09-22T02:45:51.083Z,0
2018-09-22T02:46:20.346Z,0
2018-09-22T02:46:49.720Z,0
2018-09-22T02:47:20.036Z,0
2018-09-22T02:47:49.298Z,0
2018-09-22T02:48:18.582Z,0
2018-09-22T02:48:47.878Z,0
2018-09-22T02:49:17.140Z,0
2018-09-22T02:49:46.455Z,0
2018-09-22T02:50:15.760Z,0
2018-09-22T02:50:45.108Z,0
2018-09-22T02:51:14.371Z,0
2018-09-22T02:51:43.762Z,0
2018-09-22T02:52:13.032Z,0
2018-09-22T02:52:42.324Z,0
2018-09-22T02:53:11.647Z,0
2018-09-22T02:53:40.935Z,0
2018-09-22T02:54:10.221Z,0
2018-09-22T02:54:39.490Z,0
2018-09-22T02:55:08.829Z,0
2018-09-22T02:55:38.104Z,0
2018-09-22T02:56:07.379Z,0
2018-09-22T02:56:36.669Z,0
2018-09-22T02:57:06.015Z,0
2018-09-22T02:57:35.318Z,0
2018-09-22T02:58:04.604Z,0
2018-09-22T02:58:33.888Z,0
2018-09-22T02:59:03.190Z,0
2018-09-22T02:59:32.517Z,0
2018-09-22T03:00:01.848Z,0
2018-09-22T03:00:31.152Z,0
2018-09-22T03:01:00.454Z,0
2018-09-22T03:01:29.781Z,0
2018-09-22T03:01:59.133Z,0
2018-09-22T03:02:28.439Z,0
2018-09-22T03:02:57.735Z,0
2018-09-22T03:03:28.048Z,0
2018-09-22T03:03:58.379Z,0
2018-09-22T03:04:28.675Z,0
2018-09-22T03:04:58.003Z,0
2018-09-22T03:05:27.323Z,0
2018-09-22T03:05:56.644Z,0
2018-09-22T03:06:25.962Z,0
2018-09-22T03:06:55.245Z,0
2018-09-22T03:07:24.602Z,0
2018-09-22T03:07:53.890Z,0
2018-09-22T03:08:23.199Z,0
2018-09-22T03:08:52.608Z,0
2018-09-22T03:09:21.850Z,0
2018-09-22T03:09:51.143Z,0
2018-09-22T03:10:20.447Z,0
2018-09-22T03:10:49.769Z,0
2018-09-22T03:11:19.039Z,0
2018-09-22T03:11:48.373Z,0
2018-09-22T03:12:17.716Z,0
2018-09-22T03:12:47.033Z,0
2018-09-22T03:13:16.501Z,0
2018-09-22T03:13:45.804Z,0
2018-09-22T03:14:15.108Z,0
2018-09-22T03:14:44.411Z,0
2018-09-22T03:15:13.739Z,0
2018-09-22T03:15:43.055Z,0
2018-09-22T03:16:12.414Z,0
2018-09-22T03:16:41.891Z,0
2018-09-22T03:17:11.178Z,0
2018-09-22T03:17:40.614Z,0
2018-09-22T03:18:10.428Z,0
2018-09-22T03:18:39.792Z,0
2018-09-22T03:19:09.076Z,0
2018-09-22T03:19:38.405Z,0
2018-09-22T03:20:07.702Z,0
2018-09-22T03:20:37.013Z,0
2018-09-22T03:21:06.351Z,0
2018-09-22T03:21:36.681Z,0
2018-09-22T03:22:05.976Z,0
2018-09-22T03:22:35.408Z,0
2018-09-22T03:23:04.770Z,0
2018-09-22T03:23:34.085Z,0
2018-09-22T03:24:03.376Z,0
2018-09-22T03:24:32.699Z,0
2018-09-22T03:25:02.065Z,0
2018-09-22T03:25:31.341Z,0
2018-09-22T03:26:00.633Z,0
2018-09-22T03:26:30.922Z,0
2018-09-22T03:27:00.233Z,0
2018-09-22T03:27:29.573Z,0
2018-09-22T03:27:58.935Z,0
2018-09-22T03:28:28.233Z,0
2018-09-22T03:28:57.556Z,0
2018-09-22T03:29:26.871Z,0
2018-09-22T03:29:56.188Z,0
2018-09-22T03:30:26.507Z,0
2018-09-22T03:30:55.815Z,0
2018-09-22T03:31:25.218Z,0
2018-09-22T03:31:54.551Z,0
2018-09-22T03:32:23.869Z,0
2018-09-22T03:32:53.319Z,0
2018-09-22T03:33:22.616Z,0
2018-09-22T03:33:51.917Z,0
2018-09-22T03:34:21.204Z,0
2018-09-22T03:34:51.488Z,0
2018-09-22T03:35:20.859Z,0
2018-09-22T03:35:51.128Z,0
2018-09-22T03:36:20.485Z,0
2018-09-22T03:36:50.815Z,0
2018-09-22T03:37:21.151Z,0
2018-09-22T03:37:50.522Z,0
2018-09-22T03:38:19.935Z,0
2018-09-22T03:38:49.288Z,0
2018-09-22T03:39:18.817Z,0
2018-09-22T03:39:48.164Z,0
2018-09-22T03:40:17.511Z,0
2018-09-22T03:40:46.855Z,0
2018-09-22T03:41:16.282Z,0
2018-09-22T03:41:45.649Z,0
2018-09-22T03:42:15.001Z,0
2018-09-22T03:42:44.392Z,0
2018-09-22T03:43:13.757Z,0
2018-09-22T03:43:43.080Z,0
2018-09-22T03:44:13.390Z,0
2018-09-22T03:44:43.684Z,0
2018-09-22T03:45:13.054Z,0
2018-09-22T03:45:42.432Z,0
2018-09-22T03:46:11.836Z,0
2018-09-22T03:46:41.197Z,0
2018-09-22T03:47:10.498Z,0
2018-09-22T03:47:39.810Z,0
2018-09-22T03:48:09.163Z,0
2018-09-22T03:48:38.548Z,0
2018-09-22T03:49:07.836Z,0
2018-09-22T03:49:37.142Z,0
2018-09-22T03:50:07.464Z,0
2018-09-22T03:50:36.776Z,0
2018-09-22T03:51:06.048Z,0
2018-09-22T03:51:35.391Z,0
2018-09-22T03:52:04.691Z,0
2018-09-22T03:52:34.009Z,0
2018-09-22T03:53:03.312Z,0
2018-09-22T03:53:32.675Z,0
2018-09-22T03:54:02.001Z,0
2018-09-22T03:54:31.289Z,0
2018-09-22T03:55:00.565Z,0
2018-09-22T03:55:29.883Z,0
2018-09-22T03:55:59.182Z,0
2018-09-22T03:56:28.471Z,0
2018-09-22T03:56:57.788Z,0
2018-09-22T03:57:27.102Z,0
2018-09-22T03:57:56.450Z,0
2018-09-22T03:58:25.785Z,0
2018-09-22T03:58:55.183Z,0
2018-09-22T03:59:24.561Z,0
2018-09-22T03:59:53.882Z,0
2018-09-22T04:00:23.262Z,0
2018-09-22T04:00:52.590Z,0
2018-09-22T04:01:21.907Z,0
2018-09-22T04:01:51.240Z,0
2018-09-22T04:02:20.599Z,0
2018-09-22T04:02:49.938Z,0
2018-09-22T04:03:19.291Z,0
2018-09-22T04:03:48.668Z,0
2018-09-22T04:04:17.983Z,0
2018-09-22T04:04:47.308Z,0
2018-09-22T04:05:16.642Z,0
2018-09-22T04:05:45.931Z,0
2018-09-22T04:06:15.264Z,0
2018-09-22T04:06:44.615Z,0
2018-09-22T04:07:13.954Z,0
2018-09-22T04:07:43.372Z,0
2018-09-22T04:08:12.836Z,0
2018-09-22T04:08:42.118Z,0
2018-09-22T04:09:11.487Z,0
2018-09-22T04:09:40.795Z,0
2018-09-22T04:10:10.126Z,0
2018-09-22T04:10:39.420Z,0
2018-09-22T04:11:08.775Z,0
2018-09-22T04:11:38.140Z,0
2018-09-22T04:12:07.504Z,0
2018-09-22T04:12:36.905Z,0
2018-09-22T04:13:07.214Z,0
2018-09-22T04:13:36.548Z,0
2018-09-22T04:14:06.019Z,0
2018-09-22T04:14:35.311Z,0
2018-09-22T04:15:04.607Z,0
2018-09-22T04:15:33.887Z,0
2018-09-22T04:16:03.187Z,0
2018-09-22T04:16:32.556Z,0
2018-09-22T04:17:01.881Z,0
2018-09-22T04:17:31.228Z,0
2018-09-22T04:18:00.593Z,0
2018-09-22T04:18:30.896Z,0
2018-09-22T04:19:00.201Z,0
2018-09-22T04:19:29.590Z,0
2018-09-22T04:19:58.907Z,0
2018-09-22T04:20:28.208Z,0
2018-09-22T04:20:57.522Z,0
2018-09-22T04:21:26.837Z,0
2018-09-22T04:21:56.119Z,0
2018-09-22T04:22:25.397Z,0
2018-09-22T04:22:54.749Z,0
2018-09-22T04:23:24.040Z,0
2018-09-22T04:23:54.351Z,0
2018-09-22T04:24:23.757Z,0
2018-09-22T04:24:53.074Z,0
2018-09-22T04:25:23.357Z,0
2018-09-22T04:25:52.638Z,0
2018-09-22T04:26:21.993Z,0
2018-09-22T04:26:51.303Z,0
2018-09-22T04:27:20.625Z,0
2018-09-22T04:27:49.914Z,0
2018-09-22T04:28:19.211Z,0
2018-09-22T04:28:48.568Z,0
2018-09-22T04:29:17.920Z,0
2018-09-22T04:29:47.270Z,0
2018-09-22T04:30:16.593Z,0
2018-09-22T04:30:45.883Z,0
2018-09-22T04:31:15.169Z,0
2018-09-22T04:31:44.540Z,0
2018-09-22T04:32:13.852Z,0
2018-09-22T04:32:43.233Z,0
2018-09-22T04:33:12.589Z,0
2018-09-22T04:33:41.903Z,0
2018-09-22T04:34:11.321Z,0
2018-09-22T04:34:40.676Z,0
2018-09-22T04:35:09.985Z,0
2018-09-22T04:35:39.344Z,0
2018-09-22T04:36:08.684Z,0
2018-09-22T04:36:38.985Z,0
2018-09-22T04:37:08.303Z,0
2018-09-22T04:37:37.649Z,0
2018-09-22T04:38:06.998Z,0
2018-09-22T04:38:36.366Z,0
2018-09-22T04:39:05.698Z,0
2018-09-22T04:39:35.021Z,0
2018-09-22T04:40:04.394Z,0
2018-09-22T04:40:33.686Z,0
2018-09-22T04:41:02.986Z,0
2018-09-22T04:41:32.332Z,0
2018-09-22T04:42:01.643Z,0
2018-09-22T04:42:30.994Z,0
2018-09-22T04:43:00.326Z,0
2018-09-22T04:43:29.650Z,0
2018-09-22T04:43:59.005Z,0
2018-09-22T04:44:28.332Z,0
2018-09-22T04:44:57.686Z,0
2018-09-22T04:45:27.058Z,0
2018-09-22T04:45:56.406Z,0
2018-09-22T04:46:25.743Z,0
2018-09-22T04:46:55.174Z,0
2018-09-22T04:47:24.556Z,0
2018-09-22T04:47:54.002Z,0
2018-09-22T04:48:23.278Z,0
2018-09-22T04:48:53.547Z,0
2018-09-22T04:49:22.894Z,0
2018-09-22T04:49:52.231Z,0
2018-09-22T04:50:21.658Z,0
2018-09-22T04:50:50.970Z,0
2018-09-22T04:51:21.311Z,0
2018-09-22T04:51:50.633Z,0
2018-09-22T04:52:20.017Z,0
2018-09-22T04:52:49.351Z,0
2018-09-22T04:53:18.670Z,0
2018-09-22T04:53:47.984Z,0
2018-09-22T04:54:17.299Z,0
2018-09-22T04:54:46.636Z,0
2018-09-22T04:55:16.049Z,0
2018-09-22T04:55:45.361Z,0
2018-09-22T04:56:14.667Z,0
2018-09-22T04:56:43.939Z,0
2018-09-22T04:57:14.271Z,0
2018-09-22T04:57:43.577Z,0
2018-09-22T04:58:12.854Z,0
2018-09-22T04:58:42.138Z,0
2018-09-22T04:59:11.445Z,0
2018-09-22T04:59:40.735Z,0
2018-09-22T05:00:10.068Z,0
2018-09-22T05:00:39.423Z,0
2018-09-22T05:01:08.699Z,0
2018-09-22T05:01:38.007Z,0
2018-09-22T05:02:07.292Z,0
2018-09-22T05:02:36.599Z,0
2018-09-22T05:03:05.885Z,0
2018-09-22T05:03:35.173Z,0
2018-09-22T05:04:04.959Z,0
2018-09-22T05:04:34.240Z,0
2018-09-22T05:05:03.504Z,0
2018-09-22T05:05:32.830Z,0
2018-09-22T05:06:02.167Z,0
2018-09-22T05:06:31.432Z,0
2018-09-22T05:07:00.743Z,0
2018-09-22T05:07:30.046Z,0
2018-09-22T05:07:59.317Z,0
2018-09-22T05:08:28.603Z,0
2018-09-22T05:08:57.920Z,0
2018-09-22T05:09:28.200Z,0
2018-09-22T05:09:57.530Z,0
2018-09-22T05:10:26.779Z,0
2018-09-22T05:10:57.126Z,0
2018-09-22T05:11:26.422Z,0
2018-09-22T05:11:56.722Z,0
2018-09-22T05:12:26.023Z,0
2018-09-22T05:12:55.355Z,0
2018-09-22T05:13:24.617Z,0
2018-09-22T05:13:53.880Z,0
2018-09-22T05:14:23.164Z,0
2018-09-22T05:14:52.922Z,0
2018-09-22T05:15:22.233Z,0
2018-09-22T05:15:51.561Z,0
2018-09-22T05:16:20.825Z,0
2018-09-22T05:16:50.118Z,0
2018-09-22T05:17:19.413Z,0
2018-09-22T05:17:48.672Z,0
2018-09-22T05:18:17.942Z,0
2018-09-22T05:18:47.225Z,0
2018-09-22T05:19:16.501Z,0
2018-09-22T05:19:45.804Z,0
2018-09-22T05:20:15.096Z,0
2018-09-22T05:20:44.352Z,0
2018-09-22T05:21:13.693Z,0
2018-09-22T05:21:42.971Z,0
2018-09-22T05:22:12.257Z,0
2018-09-22T05:22:41.570Z,0
2018-09-22T05:23:10.854Z,0
2018-09-22T05:23:40.144Z,0
2018-09-22T05:24:09.453Z,0
2018-09-22T05:24:38.821Z,0
2018-09-22T05:25:08.078Z,0
2018-09-22T05:25:37.402Z,0
2018-09-22T05:26:06.758Z,0
2018-09-22T05:26:36.059Z,0
2018-09-22T05:27:05.937Z,0
2018-09-22T05:27:35.225Z,0
2018-09-22T05:28:04.537Z,0
2018-09-22T05:28:33.797Z,0
2018-09-22T05:29:03.096Z,0
2018-09-22T05:29:32.379Z,0
2018-09-22T05:30:01.669Z,0
2018-09-22T05:30:31.015Z,0
2018-09-22T05:31:00.308Z,0
2018-09-22T05:31:30.681Z,0
2018-09-22T05:31:59.981Z,0
2018-09-22T05:32:29.276Z,0
2018-09-22T05:32:58.588Z,0
2018-09-22T05:33:27.970Z,0
2018-09-22T05:33:57.185Z,0
2018-09-22T05:34:26.451Z,0
2018-09-22T05:34:55.767Z,0
2018-09-22T05:35:25.155Z,0
2018-09-22T05:35:54.402Z,0
2018-09-22T05:36:23.814Z,0
2018-09-22T05:36:53.145Z,0
2018-09-22T05:37:22.465Z,0
2018-09-22T05:37:51.793Z,0
2018-09-22T05:38:21.142Z,0
2018-09-22T05:38:50.486Z,0
2018-09-22T05:39:19.769Z,0
2018-09-22T05:39:49.099Z,0
2018-09-22T05:40:18.418Z,0
2018-09-22T05:40:47.710Z,0
2018-09-22T05:41:17.019Z,0
2018-09-22T05:41:46.437Z,0
2018-09-22T05:42:16.710Z,0
2018-09-22T05:42:46.015Z,0
2018-09-22T05:43:16.303Z,0
2018-09-22T05:43:45.655Z,0
2018-09-22T05:44:14.955Z,0
2018-09-22T05:44:44.277Z,0
2018-09-22T05:45:13.570Z,0
2018-09-22T05:45:42.904Z,1
2018-09-22T05:46:12.231Z,1
2018-09-22T05:46:41.618Z,1
2018-09-22T05:47:10.936Z,0
2018-09-22T05:47:40.224Z,0
2018-09-22T05:48:09.491Z,0
2018-09-22T05:48:38.763Z,1
2018-09-22T05:49:08.115Z,1
2018-09-22T05:49:37.502Z,1
2018-09-22T05:50:06.790Z,0
2018-09-22T05:50:36.098Z,1
2018-09-22T05:51:05.375Z,1
2018-09-22T05:51:34.682Z,1
2018-09-22T05:52:04.074Z,1
2018-09-22T05:52:33.490Z,1
2018-09-22T05:53:02.835Z,1
2018-09-22T05:53:33.153Z,2
2018-09-22T05:54:02.453Z,1
2018-09-22T05:54:31.784Z,1
2018-09-22T05:55:01.101Z,2
2018-09-22T05:55:30.405Z,2
2018-09-22T05:55:59.715Z,2
2018-09-22T05:56:29.007Z,2
2018-09-22T05:56:58.404Z,3
2018-09-22T05:57:27.683Z,2
2018-09-22T05:57:57.049Z,2
2018-09-22T05:58:26.338Z,3
2018-09-22T05:58:55.623Z,2
2018-09-22T05:59:25.944Z,3
2018-09-22T05:59:55.271Z,4
2018-09-22T06:00:24.552Z,3
2018-09-22T06:00:53.947Z,4
2018-09-22T06:01:23.294Z,4
2018-09-22T06:01:52.589Z,4
2018-09-22T06:02:22.021Z,5
2018-09-22T06:02:51.350Z,5
2018-09-22T06:03:21.668Z,5
2018-09-22T06:03:51.094Z,5
2018-09-22T06:04:20.357Z,5
2018-09-22T06:04:49.602Z,5
2018-09-22T06:05:18.890Z,6
2018-09-22T06:05:48.215Z,6
2018-09-22T06:06:17.512Z,6
2018-09-22T06:06:46.845Z,7
2018-09-22T06:07:16.283Z,8
2018-09-22T06:07:45.593Z,8
2018-09-22T06:08:14.877Z,8
2018-09-22T06:08:44.297Z,8
2018-09-22T06:09:13.607Z,8
2018-09-22T06:09:42.908Z,9
2018-09-22T06:10:12.181Z,10
2018-09-22T06:10:41.526Z,10
2018-09-22T06:11:10.861Z,10
2018-09-22T06:11:40.200Z,10
2018-09-22T06:12:09.529Z,11
2018-09-22T06:12:38.881Z,12
2018-09-22T06:13:08.210Z,12
2018-09-22T06:13:37.553Z,12
2018-09-22T06:14:06.882Z,12
2018-09-22T06:14:36.220Z,13
2018-09-22T06:15:05.569Z,13
2018-09-22T06:15:34.835Z,13
2018-09-22T06:16:04.123Z,15
2018-09-22T06:16:33.476Z,15
2018-09-22T06:17:02.861Z,15
2018-09-22T06:17:32.205Z,16
2018-09-22T06:18:01.535Z,16
2018-09-22T06:18:30.839Z,16
2018-09-22T06:19:00.163Z,17
2018-09-22T06:19:29.530Z,17
2018-09-22T06:19:58.855Z,17
2018-09-22T06:20:28.136Z,18
2018-09-22T06:20:57.486Z,18
2018-09-22T06:21:26.809Z,19
2018-09-22T06:21:56.146Z,20
2018-09-22T06:22:25.433Z,20
2018-09-22T06:22:54.797Z,21
2018-09-22T06:23:24.159Z,22
2018-09-22T06:23:53.443Z,22
2018-09-22T06:24:22.747Z,23
2018-09-22T06:24:54.873Z,23
2018-09-22T06:25:24.178Z,24
2018-09-22T06:25:53.537Z,24
2018-09-22T06:26:22.826Z,25
2018-09-22T06:26:52.948Z,26
2018-09-22T06:27:22.233Z,29
2018-09-22T06:27:51.589Z,31
2018-09-22T06:28:21.429Z,34
2018-09-22T06:28:50.777Z,37
2018-09-22T06:29:20.054Z,38
2018-09-22T06:29:50.497Z,40
2018-09-22T06:30:19.777Z,42
2018-09-22T06:30:49.052Z,44
2018-09-22T06:31:18.365Z,46
2018-09-22T06:31:47.728Z,47
2018-09-22T06:32:17.002Z,49
2018-09-22T06:32:46.321Z,50
2018-09-22T06:33:15.693Z,51
2018-09-22T06:33:44.998Z,53
2018-09-22T06:34:15.259Z,56
2018-09-22T06:34:44.526Z,58
2018-09-22T06:35:13.840Z,60
2018-09-22T06:35:43.166Z,62
2018-09-22T06:36:13.439Z,64
2018-09-22T06:36:42.765Z,66
2018-09-22T06:37:12.037Z,65
2018-09-22T06:37:41.301Z,65
2018-09-22T06:38:10.644Z,66
2018-09-22T06:38:39.927Z,69
2018-09-22T06:39:09.198Z,73
2018-09-22T06:39:38.544Z,76
2018-09-22T06:40:07.797Z,78
2018-09-22T06:40:37.074Z,82
2018-09-22T06:41:06.377Z,87
2018-09-22T06:41:35.666Z,90
2018-09-22T06:42:04.983Z,93
2018-09-22T06:42:34.276Z,96
2018-09-22T06:43:03.572Z,99
2018-09-22T06:43:32.953Z,101
2018-09-22T06:44:02.270Z,104
2018-09-22T06:44:31.583Z,106
2018-09-22T06:45:01.200Z,109
2018-09-22T06:45:30.524Z,112
2018-09-22T06:45:59.917Z,114
2018-09-22T06:46:29.390Z,116
2018-09-22T06:46:58.672Z,118
2018-09-22T06:47:27.954Z,1245
2018-09-22T06:47:57.338Z,1262
2018-09-22T06:48:27.747Z,1284
2018-09-22T06:48:57.045Z,1305
2018-09-22T06:49:26.391Z,1326
2018-09-22T06:49:55.708Z,1345
2018-09-22T06:50:25.008Z,1366
2018-09-22T06:50:54.931Z,1387
2018-09-22T06:51:24.272Z,1407
2018-09-22T06:51:53.675Z,1427
2018-09-22T06:52:23.576Z,1451
2018-09-22T06:52:53.926Z,1470
2018-09-22T06:53:23.215Z,1490
2018-09-22T06:53:52.570Z,1510
2018-09-22T06:54:21.908Z,1529
2018-09-22T06:54:51.268Z,1549
2018-09-22T06:55:20.522Z,1572
2018-09-22T06:55:50.812Z,1591
2018-09-22T06:56:20.126Z,1612
2018-09-22T06:56:49.390Z,1633
2018-09-22T06:57:18.714Z,1654
2018-09-22T06:57:48.004Z,1676
2018-09-22T06:58:17.275Z,1697
2018-09-22T06:58:46.622Z,1718
2018-09-22T06:59:15.941Z,1743
2018-09-22T06:59:45.261Z,1762
2018-09-22T07:00:14.602Z,1782
2018-09-22T07:00:43.921Z,1804
2018-09-22T07:01:13.379Z,1824
2018-09-22T07:01:42.909Z,1846
2018-09-22T07:02:12.196Z,1866
2018-09-22T07:02:41.468Z,1888
2018-09-22T07:03:10.790Z,1906
2018-09-22T07:03:40.053Z,1923
2018-09-22T07:04:09.445Z,1946
2018-09-22T07:04:38.726Z,1966
2018-09-22T07:05:08.028Z,1983
2018-09-22T07:05:38.309Z,2006
2018-09-22T07:06:07.583Z,2026
2018-09-22T07:06:36.877Z,2044
2018-09-22T07:07:06.206Z,2067
2018-09-22T07:07:35.525Z,2089
2018-09-22T07:08:04.848Z,2106
2018-09-22T07:08:34.138Z,2126
2018-09-22T07:09:03.689Z,2143
2018-09-22T07:09:33.087Z,2161
2018-09-22T07:10:02.357Z,2182
2018-09-22T07:10:31.962Z,2203
2018-09-22T07:11:01.177Z,2221
2018-09-22T07:11:30.494Z,2242
2018-09-22T07:11:59.820Z,2262
2018-09-22T07:12:30.777Z,2284
2018-09-22T07:13:00.075Z,2302
2018-09-22T07:13:29.379Z,2320
2018-09-22T07:13:58.735Z,2340
2018-09-22T07:14:28.015Z,2366
2018-09-22T07:14:57.311Z,2381
2018-09-22T07:15:26.615Z,2397
2018-09-22T07:15:55.933Z,2418
2018-09-22T07:16:25.232Z,2438
2018-09-22T07:16:54.478Z,2455
2018-09-22T07:17:23.753Z,2470
2018-09-22T07:17:53.111Z,2492
2018-09-22T07:18:22.477Z,2514
2018-09-22T07:18:51.718Z,2532
2018-09-22T07:19:21.097Z,2554
2018-09-22T07:19:50.308Z,2576
2018-09-22T07:20:19.608Z,2595
2018-09-22T07:20:48.878Z,2620
2018-09-22T07:21:18.217Z,2636
2018-09-22T07:21:47.485Z,2654
2018-09-22T07:22:16.764Z,2670
2018-09-22T07:22:46.044Z,2686
2018-09-22T07:23:15.342Z,2705
2018-09-22T07:23:44.618Z,2719
2018-09-22T07:24:13.907Z,2734
2018-09-22T07:24:43.300Z,2753
2018-09-22T07:25:12.661Z,2773
2018-09-22T07:25:41.938Z,2789
2018-09-22T07:26:11.270Z,2807
2018-09-22T07:26:40.531Z,2823
2018-09-22T07:27:09.853Z,2842
2018-09-22T07:27:39.156Z,2862
2018-09-22T07:28:08.433Z,2879
2018-09-22T07:28:37.737Z,2897
2018-09-22T07:29:07.031Z,2913
2018-09-22T07:29:36.379Z,2929
2018-09-22T07:30:05.645Z,2947
2018-09-22T07:30:34.931Z,2964
2018-09-22T07:31:04.243Z,2980
2018-09-22T07:31:33.504Z,3000
2018-09-22T07:32:02.852Z,3013
2018-09-22T07:32:32.149Z,3032
2018-09-22T07:33:01.428Z,3046
2018-09-22T07:33:30.694Z,3061
2018-09-22T07:33:59.966Z,3075